Aviation Digital Data Service (ADDS)

Output produced by METARs form (0826 UTC 26 August 2016)
found at http://aviationweather.gov/adds/metars/
 
KSSI 260540Z 2606/2706 08007KT P6SM FEW030 SCT250 
     FM261400 06010KT P6SM SCT030 SCT250 
     FM261600 07014G22KT P6SM SCT040 SCT250 
     FM262300 09010KT P6SM SCT030